sensor_id;sensor_type;location;lat;lon;timestamp;temperature;humidity
27890;DHT22;15238;49.082;9.102;2023-12-20T00:01:32;5.40;99.90
27890;DHT22;15238;49.082;9.102;2023-12-20T00:03:32;5.40;99.90
27890;DHT22;15238;49.082;9.102;2023-12-20T00:05:32;5.40;99.90
27890;DHT22;15238;49.082;9.102;2023-12-20T00:07:33;5.30;99.90
27890;DHT22;15238;49.082;9.102;2023-12-20T00:09:34;5.30;99.90
27890;DHT22;15238;49.082;9.102;2023-12-20T00:11:34;5.30;99.90
27890;DHT22;15238;49.082;9.102;2023-12-20T00:13:35;5.30;99.90
27890;DHT22;15238;49.082;9.102;2023-12-20T00:15:35;5.30;99.90
27890;DHT22;15238;49.082;9.102;2023-12-20T00:17:36;5.30;99.90
27890;DHT22;15238;49.082;9.102;2023-12-20T00:19:36;5.30;99.90
27890;DHT22;15238;49.082;9.102;2023-12-20T00:21:37;5.30;99.90
27890;DHT22;15238;49.082;9.102;2023-12-20T00:23:38;5.30;99.90
27890;DHT22;15238;49.082;9.102;2023-12-20T00:25:38;5.30;99.90
27890;DHT22;15238;49.082;9.102;2023-12-20T00:27:39;5.30;99.90
27890;DHT22;15238;49.082;9.102;2023-12-20T00:29:39;5.30;99.90
27890;DHT22;15238;49.082;9.102;2023-12-20T00:31:40;5.20;99.90
27890;DHT22;15238;49.082;9.102;2023-12-20T00:33:40;5.20;99.90
27890;DHT22;15238;49.082;9.102;2023-12-20T00:35:43;5.10;99.90
27890;DHT22;15238;49.082;9.102;2023-12-20T00:37:44;5.20;99.90
27890;DHT22;15238;49.082;9.102;2023-12-20T00:39:44;5.20;99.90
27890;DHT22;15238;49.082;9.102;2023-12-20T00:41:45;5.20;99.90
27890;DHT22;15238;49.082;9.102;2023-12-20T00:43:45;5.20;99.90
27890;DHT22;15238;49.082;9.102;2023-12-20T00:45:46;5.30;99.90
27890;DHT22;15238;49.082;9.102;2023-12-20T00:47:47;5.30;99.90
27890;DHT22;15238;49.082;9.102;2023-12-20T00:49:47;5.40;99.90
27890;DHT22;15238;49.082;9.102;2023-12-20T00:51:48;5.50;99.90
27890;DHT22;15238;49.082;9.102;2023-12-20T00:53:50;5.60;99.90
27890;DHT22;15238;49.082;9.102;2023-12-20T00:55:55;5.50;99.90
27890;DHT22;15238;49.082;9.102;2023-12-20T00:57:55;5.60;99.90
27890;DHT22;15238;49.082;9.102;2023-12-20T00:59:56;5.60;99.90
27890;DHT22;15238;49.082;9.102;2023-12-20T01:01:56;5.60;99.90
27890;DHT22;15238;49.082;9.102;2023-12-20T01:03:57;5.60;99.90
27890;DHT22;15238;49.082;9.102;2023-12-20T01:05:57;5.60;99.90
27890;DHT22;15238;49.082;9.102;2023-12-20T01:07:58;5.50;99.90
27890;DHT22;15238;49.082;9.102;2023-12-20T01:09:58;5.60;99.90
27890;DHT22;15238;49.082;9.102;2023-12-20T01:11:59;5.60;99.90
27890;DHT22;15238;49.082;9.102;2023-12-20T01:13:59;5.60;99.90
27890;DHT22;15238;49.082;9.102;2023-12-20T01:16:00;5.60;99.90
27890;DHT22;15238;49.082;9.102;2023-12-20T01:18:00;5.60;99.90
27890;DHT22;15238;49.082;9.102;2023-12-20T01:20:01;5.60;99.90
27890;DHT22;15238;49.082;9.102;2023-12-20T01:22:01;5.60;99.90
27890;DHT22;15238;49.082;9.102;2023-12-20T01:24:02;5.60;99.90
27890;DHT22;15238;49.082;9.102;2023-12-20T01:26:02;5.60;99.90
27890;DHT22;15238;49.082;9.102;2023-12-20T01:28:05;5.60;99.90
27890;DHT22;15238;49.082;9.102;2023-12-20T01:30:06;5.70;99.90
27890;DHT22;15238;49.082;9.102;2023-12-20T01:32:06;5.70;99.90
27890;DHT22;15238;49.082;9.102;2023-12-20T01:34:07;5.60;99.90
27890;DHT22;15238;49.082;9.102;2023-12-20T01:36:07;5.60;99.90
27890;DHT22;15238;49.082;9.102;2023-12-20T01:38:09;5.70;99.90
27890;DHT22;15238;49.082;9.102;2023-12-20T01:40:10;5.70;99.90
27890;DHT22;15238;49.082;9.102;2023-12-20T01:42:10;5.60;99.90
27890;DHT22;15238;49.082;9.102;2023-12-20T01:44:11;5.70;99.90
27890;DHT22;15238;49.082;9.102;2023-12-20T01:46:12;5.70;99.90
27890;DHT22;15238;49.082;9.102;2023-12-20T01:48:13;5.70;99.90
27890;DHT22;15238;49.082;9.102;2023-12-20T01:50:15;5.70;99.90
27890;DHT22;15238;49.082;9.102;2023-12-20T01:52:16;5.70;99.90
27890;DHT22;15238;49.082;9.102;2023-12-20T01:54:19;5.70;99.90
27890;DHT22;15238;49.082;9.102;2023-12-20T01:56:21;5.70;99.90
27890;DHT22;15238;49.082;9.102;2023-12-20T01:58:22;5.70;99.90
27890;DHT22;15238;49.082;9.102;2023-12-20T02:00:23;5.70;99.90
27890;DHT22;15238;49.082;9.102;2023-12-20T02:02:25;5.70;99.90
27890;DHT22;15238;49.082;9.102;2023-12-20T02:04:27;5.70;99.90
27890;DHT22;15238;49.082;9.102;2023-12-20T02:06:30;5.70;99.90
27890;DHT22;15238;49.082;9.102;2023-12-20T02:08:31;5.70;99.90
27890;DHT22;15238;49.082;9.102;2023-12-20T02:10:32;5.70;99.90
27890;DHT22;15238;49.082;9.102;2023-12-20T02:12:32;5.70;99.90
27890;DHT22;15238;49.082;9.102;2023-12-20T02:14:33;5.70;99.90
27890;DHT22;15238;49.082;9.102;2023-12-20T02:16:33;5.70;99.90
27890;DHT22;15238;49.082;9.102;2023-12-20T02:18:34;5.70;99.90
27890;DHT22;15238;49.082;9.102;2023-12-20T02:20:34;5.70;99.90
27890;DHT22;15238;49.082;9.102;2023-12-20T02:22:35;5.70;99.90
27890;DHT22;15238;49.082;9.102;2023-12-20T02:24:36;5.70;99.90
27890;DHT22;15238;49.082;9.102;2023-12-20T02:26:36;5.70;99.90
27890;DHT22;15238;49.082;9.102;2023-12-20T02:28:37;5.70;99.90
27890;DHT22;15238;49.082;9.102;2023-12-20T02:30:37;5.70;99.90
27890;DHT22;15238;49.082;9.102;2023-12-20T02:32:38;5.70;99.90
27890;DHT22;15238;49.082;9.102;2023-12-20T02:34:38;5.70;99.90
27890;DHT22;15238;49.082;9.102;2023-12-20T02:36:39;5.70;99.90
27890;DHT22;15238;49.082;9.102;2023-12-20T02:38:39;5.70;99.90
27890;DHT22;15238;49.082;9.102;2023-12-20T02:40:40;5.70;99.90
27890;DHT22;15238;49.082;9.102;2023-12-20T02:42:40;5.70;99.90
27890;DHT22;15238;49.082;9.102;2023-12-20T02:44:41;5.70;99.90
27890;DHT22;15238;49.082;9.102;2023-12-20T02:46:41;5.70;99.90
27890;DHT22;15238;49.082;9.102;2023-12-20T02:48:42;5.70;99.90
27890;DHT22;15238;49.082;9.102;2023-12-20T02:50:42;5.60;99.90
27890;DHT22;15238;49.082;9.102;2023-12-20T02:52:45;5.60;99.90
27890;DHT22;15238;49.082;9.102;2023-12-20T02:54:45;5.60;99.90
27890;DHT22;15238;49.082;9.102;2023-12-20T02:56:46;5.60;99.90
27890;DHT22;15238;49.082;9.102;2023-12-20T02:58:46;5.60;99.90
27890;DHT22;15238;49.082;9.102;2023-12-20T03:00:47;5.60;99.90
27890;DHT22;15238;49.082;9.102;2023-12-20T03:02:47;5.60;99.90
27890;DHT22;15238;49.082;9.102;2023-12-20T03:04:48;5.50;99.90
27890;DHT22;15238;49.082;9.102;2023-12-20T03:06:48;5.50;99.90
27890;DHT22;15238;49.082;9.102;2023-12-20T03:08:49;5.60;99.90
27890;DHT22;15238;49.082;9.102;2023-12-20T03:10:49;5.60;99.90
27890;DHT22;15238;49.082;9.102;2023-12-20T03:12:50;5.60;99.90
27890;DHT22;15238;49.082;9.102;2023-12-20T03:14:50;5.60;99.90
27890;DHT22;15238;49.082;9.102;2023-12-20T03:16:51;5.60;99.90
27890;DHT22;15238;49.082;9.102;2023-12-20T03:18:52;5.60;99.90
27890;DHT22;15238;49.082;9.102;2023-12-20T03:20:52;5.60;99.90
27890;DHT22;15238;49.082;9.102;2023-12-20T03:22:53;5.60;99.90
27890;DHT22;15238;49.082;9.102;2023-12-20T03:24:53;5.60;99.90
27890;DHT22;15238;49.082;9.102;2023-12-20T03:26:54;5.60;99.90
27890;DHT22;15238;49.082;9.102;2023-12-20T03:28:54;5.60;99.90
27890;DHT22;15238;49.082;9.102;2023-12-20T03:30:55;5.60;99.90
27890;DHT22;15238;49.082;9.102;2023-12-20T03:32:55;5.60;99.90
27890;DHT22;15238;49.082;9.102;2023-12-20T03:34:56;5.60;99.90
27890;DHT22;15238;49.082;9.102;2023-12-20T03:36:56;5.60;99.90
27890;DHT22;15238;49.082;9.102;2023-12-20T03:38:57;5.60;99.90
27890;DHT22;15238;49.082;9.102;2023-12-20T03:40:57;5.60;99.90
27890;DHT22;15238;49.082;9.102;2023-12-20T03:42:58;5.60;99.90
27890;DHT22;15238;49.082;9.102;2023-12-20T03:44:58;5.60;99.90
27890;DHT22;15238;49.082;9.102;2023-12-20T03:46:59;5.60;99.90
27890;DHT22;15238;49.082;9.102;2023-12-20T03:48:59;5.60;99.90
27890;DHT22;15238;49.082;9.102;2023-12-20T03:51:00;5.60;99.90
27890;DHT22;15238;49.082;9.102;2023-12-20T03:53:00;5.50;99.90
27890;DHT22;15238;49.082;9.102;2023-12-20T03:55:01;5.60;99.90
27890;DHT22;15238;49.082;9.102;2023-12-20T03:57:01;5.50;99.90
27890;DHT22;15238;49.082;9.102;2023-12-20T03:59:02;5.50;99.90
27890;DHT22;15238;49.082;9.102;2023-12-20T04:01:02;5.50;99.90
27890;DHT22;15238;49.082;9.102;2023-12-20T04:03:03;5.50;99.90
27890;DHT22;15238;49.082;9.102;2023-12-20T04:05:04;5.50;99.90
27890;DHT22;15238;49.082;9.102;2023-12-20T04:07:05;5.40;99.90
27890;DHT22;15238;49.082;9.102;2023-12-20T04:09:05;5.50;99.90
27890;DHT22;15238;49.082;9.102;2023-12-20T04:11:06;5.40;99.90
27890;DHT22;15238;49.082;9.102;2023-12-20T04:13:06;5.50;99.90
27890;DHT22;15238;49.082;9.102;2023-12-20T04:15:07;5.40;99.90
27890;DHT22;15238;49.082;9.102;2023-12-20T04:17:09;5.40;99.90
27890;DHT22;15238;49.082;9.102;2023-12-20T04:19:10;5.40;99.90
27890;DHT22;15238;49.082;9.102;2023-12-20T04:21:10;5.40;99.90
27890;DHT22;15238;49.082;9.102;2023-12-20T04:23:11;5.40;99.90
27890;DHT22;15238;49.082;9.102;2023-12-20T04:25:11;5.40;99.90
27890;DHT22;15238;49.082;9.102;2023-12-20T04:27:12;5.40;99.90
27890;DHT22;15238;49.082;9.102;2023-12-20T04:29:12;5.50;99.90
27890;DHT22;15238;49.082;9.102;2023-12-20T04:31:13;5.50;99.90
27890;DHT22;15238;49.082;9.102;2023-12-20T04:33:13;5.50;99.90
27890;DHT22;15238;49.082;9.102;2023-12-20T04:35:14;5.40;99.90
27890;DHT22;15238;49.082;9.102;2023-12-20T04:37:15;5.50;99.90
27890;DHT22;15238;49.082;9.102;2023-12-20T04:39:15;5.50;99.90
27890;DHT22;15238;49.082;9.102;2023-12-20T04:41:16;5.50;99.90
27890;DHT22;15238;49.082;9.102;2023-12-20T04:43:19;5.40;99.90
27890;DHT22;15238;49.082;9.102;2023-12-20T04:45:19;5.50;99.90
27890;DHT22;15238;49.082;9.102;2023-12-20T04:47:20;5.50;99.90
27890;DHT22;15238;49.082;9.102;2023-12-20T04:49:20;5.50;99.90
27890;DHT22;15238;49.082;9.102;2023-12-20T04:51:21;5.50;99.90
27890;DHT22;15238;49.082;9.102;2023-12-20T04:53:21;5.50;99.90
27890;DHT22;15238;49.082;9.102;2023-12-20T04:55:23;5.50;99.90
27890;DHT22;15238;49.082;9.102;2023-12-20T04:57:23;5.50;99.90
27890;DHT22;15238;49.082;9.102;2023-12-20T04:59:24;5.50;99.90
27890;DHT22;15238;49.082;9.102;2023-12-20T05:01:24;5.50;99.90
27890;DHT22;15238;49.082;9.102;2023-12-20T05:03:25;5.50;99.90
27890;DHT22;15238;49.082;9.102;2023-12-20T05:05:25;5.50;99.90
27890;DHT22;15238;49.082;9.102;2023-12-20T05:07:26;5.50;99.90
27890;DHT22;15238;49.082;9.102;2023-12-20T05:09:26;5.50;99.90
27890;DHT22;15238;49.082;9.102;2023-12-20T05:11:27;5.50;99.90
27890;DHT22;15238;49.082;9.102;2023-12-20T05:13:27;5.50;99.90
27890;DHT22;15238;49.082;9.102;2023-12-20T05:15:28;5.50;99.90
27890;DHT22;15238;49.082;9.102;2023-12-20T05:17:28;5.50;99.90
27890;DHT22;15238;49.082;9.102;2023-12-20T05:19:29;5.50;99.90
27890;DHT22;15238;49.082;9.102;2023-12-20T05:21:29;5.50;99.90
27890;DHT22;15238;49.082;9.102;2023-12-20T05:23:31;5.50;99.90
27890;DHT22;15238;49.082;9.102;2023-12-20T05:25:32;5.50;99.90
27890;DHT22;15238;49.082;9.102;2023-12-20T05:27:32;5.60;99.90
27890;DHT22;15238;49.082;9.102;2023-12-20T05:29:32;5.50;99.90
27890;DHT22;15238;49.082;9.102;2023-12-20T05:31:33;5.50;99.90
27890;DHT22;15238;49.082;9.102;2023-12-20T05:33:33;5.60;99.90
27890;DHT22;15238;49.082;9.102;2023-12-20T05:35:34;5.50;99.90
27890;DHT22;15238;49.082;9.102;2023-12-20T05:37:35;5.50;99.90
27890;DHT22;15238;49.082;9.102;2023-12-20T05:39:35;5.50;99.90
27890;DHT22;15238;49.082;9.102;2023-12-20T05:41:36;5.60;99.90
27890;DHT22;15238;49.082;9.102;2023-12-20T05:43:36;5.60;99.90
27890;DHT22;15238;49.082;9.102;2023-12-20T05:45:37;5.60;99.90
27890;DHT22;15238;49.082;9.102;2023-12-20T05:47:37;5.60;99.90
27890;DHT22;15238;49.082;9.102;2023-12-20T05:49:38;5.60;99.90
27890;DHT22;15238;49.082;9.102;2023-12-20T05:51:38;5.60;99.90
27890;DHT22;15238;49.082;9.102;2023-12-20T05:53:39;5.60;99.90
27890;DHT22;15238;49.082;9.102;2023-12-20T05:55:39;5.60;99.90
27890;DHT22;15238;49.082;9.102;2023-12-20T05:57:40;5.60;99.90
27890;DHT22;15238;49.082;9.102;2023-12-20T05:59:41;5.50;99.90
27890;DHT22;15238;49.082;9.102;2023-12-20T06:01:41;5.60;99.90
27890;DHT22;15238;49.082;9.102;2023-12-20T06:03:42;5.60;99.90
27890;DHT22;15238;49.082;9.102;2023-12-20T06:05:43;5.60;99.90
27890;DHT22;15238;49.082;9.102;2023-12-20T06:07:44;5.60;99.90
27890;DHT22;15238;49.082;9.102;2023-12-20T06:09:45;5.60;99.90
27890;DHT22;15238;49.082;9.102;2023-12-20T06:11:45;5.60;99.90
27890;DHT22;15238;49.082;9.102;2023-12-20T06:13:46;5.60;99.90
27890;DHT22;15238;49.082;9.102;2023-12-20T06:15:47;5.70;99.90
27890;DHT22;15238;49.082;9.102;2023-12-20T06:17:47;5.60;99.90
27890;DHT22;15238;49.082;9.102;2023-12-20T06:19:48;5.60;99.90
27890;DHT22;15238;49.082;9.102;2023-12-20T06:21:48;5.60;99.90
27890;DHT22;15238;49.082;9.102;2023-12-20T06:23:49;5.60;99.90
27890;DHT22;15238;49.082;9.102;2023-12-20T06:25:49;5.60;99.90
27890;DHT22;15238;49.082;9.102;2023-12-20T06:27:50;5.60;99.90
27890;DHT22;15238;49.082;9.102;2023-12-20T06:29:50;5.60;99.90
27890;DHT22;15238;49.082;9.102;2023-12-20T06:31:51;5.60;99.90
27890;DHT22;15238;49.082;9.102;2023-12-20T06:33:52;5.60;99.90
27890;DHT22;15238;49.082;9.102;2023-12-20T06:35:57;5.60;99.90
27890;DHT22;15238;49.082;9.102;2023-12-20T06:37:58;5.60;99.90
27890;DHT22;15238;49.082;9.102;2023-12-20T06:39:59;5.60;99.90
27890;DHT22;15238;49.082;9.102;2023-12-20T06:41:59;5.60;99.90
27890;DHT22;15238;49.082;9.102;2023-12-20T06:44:00;5.60;99.90
27890;DHT22;15238;49.082;9.102;2023-12-20T06:46:00;5.70;99.90
27890;DHT22;15238;49.082;9.102;2023-12-20T06:48:01;5.70;99.90
27890;DHT22;15238;49.082;9.102;2023-12-20T06:50:01;5.70;99.90
27890;DHT22;15238;49.082;9.102;2023-12-20T06:52:02;5.70;99.90
27890;DHT22;15238;49.082;9.102;2023-12-20T06:54:03;5.70;99.90
27890;DHT22;15238;49.082;9.102;2023-12-20T06:56:04;5.70;99.90
27890;DHT22;15238;49.082;9.102;2023-12-20T06:58:05;5.70;99.90
27890;DHT22;15238;49.082;9.102;2023-12-20T07:00:05;5.70;99.90
27890;DHT22;15238;49.082;9.102;2023-12-20T07:02:06;5.70;99.90
27890;DHT22;15238;49.082;9.102;2023-12-20T07:04:08;5.70;99.90
27890;DHT22;15238;49.082;9.102;2023-12-20T07:06:09;5.70;99.90
27890;DHT22;15238;49.082;9.102;2023-12-20T07:08:09;5.70;99.90
27890;DHT22;15238;49.082;9.102;2023-12-20T07:10:11;5.70;99.90
27890;DHT22;15238;49.082;9.102;2023-12-20T07:12:11;5.70;99.90
27890;DHT22;15238;49.082;9.102;2023-12-20T07:14:12;5.70;99.90
27890;DHT22;15238;49.082;9.102;2023-12-20T07:16:12;5.70;99.90
27890;DHT22;15238;49.082;9.102;2023-12-20T07:18:13;5.70;99.90
27890;DHT22;15238;49.082;9.102;2023-12-20T07:20:14;5.70;99.90
27890;DHT22;15238;49.082;9.102;2023-12-20T07:22:14;5.70;99.90
27890;DHT22;15238;49.082;9.102;2023-12-20T07:24:15;5.70;99.90
27890;DHT22;15238;49.082;9.102;2023-12-20T07:26:16;5.70;99.90
27890;DHT22;15238;49.082;9.102;2023-12-20T07:28:17;5.70;99.90
27890;DHT22;15238;49.082;9.102;2023-12-20T07:30:17;5.70;99.90
27890;DHT22;15238;49.082;9.102;2023-12-20T07:32:18;5.70;99.90
27890;DHT22;15238;49.082;9.102;2023-12-20T07:34:19;5.60;99.90
27890;DHT22;15238;49.082;9.102;2023-12-20T07:36:20;5.60;99.90
27890;DHT22;15238;49.082;9.102;2023-12-20T07:38:21;5.60;99.90
27890;DHT22;15238;49.082;9.102;2023-12-20T07:40:22;5.50;99.90
27890;DHT22;15238;49.082;9.102;2023-12-20T07:42:24;5.50;99.90
27890;DHT22;15238;49.082;9.102;2023-12-20T07:44:24;5.50;99.90
27890;DHT22;15238;49.082;9.102;2023-12-20T07:46:25;5.50;99.90
27890;DHT22;15238;49.082;9.102;2023-12-20T07:48:25;5.40;99.90
27890;DHT22;15238;49.082;9.102;2023-12-20T07:50:26;5.40;99.90
27890;DHT22;15238;49.082;9.102;2023-12-20T07:52:26;5.40;99.90
27890;DHT22;15238;49.082;9.102;2023-12-20T07:54:27;5.40;99.90
27890;DHT22;15238;49.082;9.102;2023-12-20T07:56:27;5.40;99.90
27890;DHT22;15238;49.082;9.102;2023-12-20T07:58:28;5.40;99.90
27890;DHT22;15238;49.082;9.102;2023-12-20T08:00:30;5.50;99.90
27890;DHT22;15238;49.082;9.102;2023-12-20T08:02:31;5.60;99.90
27890;DHT22;15238;49.082;9.102;2023-12-20T08:04:31;5.80;99.90
27890;DHT22;15238;49.082;9.102;2023-12-20T08:06:32;6.00;99.90
27890;DHT22;15238;49.082;9.102;2023-12-20T08:08:33;6.00;99.90
27890;DHT22;15238;49.082;9.102;2023-12-20T08:10:35;6.10;99.90
27890;DHT22;15238;49.082;9.102;2023-12-20T08:12:35;6.20;99.90
27890;DHT22;15238;49.082;9.102;2023-12-20T08:14:36;6.30;99.90
27890;DHT22;15238;49.082;9.102;2023-12-20T08:16:36;6.40;99.90
27890;DHT22;15238;49.082;9.102;2023-12-20T08:18:37;6.40;99.90
27890;DHT22;15238;49.082;9.102;2023-12-20T08:20:37;6.50;99.90
27890;DHT22;15238;49.082;9.102;2023-12-20T08:22:38;6.50;99.90
27890;DHT22;15238;49.082;9.102;2023-12-20T08:24:38;6.60;99.90
27890;DHT22;15238;49.082;9.102;2023-12-20T08:26:39;6.50;99.90
27890;DHT22;15238;49.082;9.102;2023-12-20T08:28:39;6.60;99.90
27890;DHT22;15238;49.082;9.102;2023-12-20T08:30:40;6.40;99.90
27890;DHT22;15238;49.082;9.102;2023-12-20T08:32:40;6.30;99.90
27890;DHT22;15238;49.082;9.102;2023-12-20T08:34:41;6.20;99.90
27890;DHT22;15238;49.082;9.102;2023-12-20T08:36:41;6.20;99.90
27890;DHT22;15238;49.082;9.102;2023-12-20T08:38:42;6.00;99.90
27890;DHT22;15238;49.082;9.102;2023-12-20T08:40:42;5.90;99.90
27890;DHT22;15238;49.082;9.102;2023-12-20T08:42:43;5.90;99.90
27890;DHT22;15238;49.082;9.102;2023-12-20T08:44:44;5.90;99.90
27890;DHT22;15238;49.082;9.102;2023-12-20T08:46:44;5.90;99.90
27890;DHT22;15238;49.082;9.102;2023-12-20T08:48:45;5.80;99.90
27890;DHT22;15238;49.082;9.102;2023-12-20T08:50:45;5.80;99.90
27890;DHT22;15238;49.082;9.102;2023-12-20T08:52:47;5.90;99.90
27890;DHT22;15238;49.082;9.102;2023-12-20T08:54:47;5.80;99.90
27890;DHT22;15238;49.082;9.102;2023-12-20T08:56:48;5.80;99.90
27890;DHT22;15238;49.082;9.102;2023-12-20T08:58:49;5.80;99.90
27890;DHT22;15238;49.082;9.102;2023-12-20T09:00:49;5.80;99.90
27890;DHT22;15238;49.082;9.102;2023-12-20T09:02:50;5.90;99.90
27890;DHT22;15238;49.082;9.102;2023-12-20T09:04:50;5.90;99.90
27890;DHT22;15238;49.082;9.102;2023-12-20T09:06:51;5.90;99.90
27890;DHT22;15238;49.082;9.102;2023-12-20T09:08:51;5.90;99.90
27890;DHT22;15238;49.082;9.102;2023-12-20T09:10:52;6.00;99.90
27890;DHT22;15238;49.082;9.102;2023-12-20T09:12:53;6.00;99.90
27890;DHT22;15238;49.082;9.102;2023-12-20T09:14:57;6.00;99.90
27890;DHT22;15238;49.082;9.102;2023-12-20T09:16:58;6.10;99.90
27890;DHT22;15238;49.082;9.102;2023-12-20T09:18:59;6.10;99.90
27890;DHT22;15238;49.082;9.102;2023-12-20T09:21:00;6.10;99.90
27890;DHT22;15238;49.082;9.102;2023-12-20T09:23:00;6.10;99.90
27890;DHT22;15238;49.082;9.102;2023-12-20T09:25:01;6.10;99.90
27890;DHT22;15238;49.082;9.102;2023-12-20T09:27:02;6.10;99.90
27890;DHT22;15238;49.082;9.102;2023-12-20T09:29:03;6.10;99.90
27890;DHT22;15238;49.082;9.102;2023-12-20T09:31:04;6.10;99.90
27890;DHT22;15238;49.082;9.102;2023-12-20T09:33:05;6.10;99.90
27890;DHT22;15238;49.082;9.102;2023-12-20T09:35:07;6.10;99.90
27890;DHT22;15238;49.082;9.102;2023-12-20T09:37:09;6.20;99.90
27890;DHT22;15238;49.082;9.102;2023-12-20T09:39:09;6.20;99.90
27890;DHT22;15238;49.082;9.102;2023-12-20T09:41:10;6.30;99.90
27890;DHT22;15238;49.082;9.102;2023-12-20T09:43:13;6.20;99.90
27890;DHT22;15238;49.082;9.102;2023-12-20T09:45:15;6.30;99.90
27890;DHT22;15238;49.082;9.102;2023-12-20T09:47:20;6.30;99.90
27890;DHT22;15238;49.082;9.102;2023-12-20T09:49:23;6.40;99.90
27890;DHT22;15238;49.082;9.102;2023-12-20T09:51:24;6.40;99.90
27890;DHT22;15238;49.082;9.102;2023-12-20T09:53:25;6.40;99.90
27890;DHT22;15238;49.082;9.102;2023-12-20T09:55:30;6.50;99.90
27890;DHT22;15238;49.082;9.102;2023-12-20T09:57:32;6.50;99.90
27890;DHT22;15238;49.082;9.102;2023-12-20T09:59:33;6.60;99.90
27890;DHT22;15238;49.082;9.102;2023-12-20T10:01:35;6.70;99.90
27890;DHT22;15238;49.082;9.102;2023-12-20T10:03:36;6.60;99.90
27890;DHT22;15238;49.082;9.102;2023-12-20T10:05:43;6.60;99.90
27890;DHT22;15238;49.082;9.102;2023-12-20T10:07:44;6.50;99.90
27890;DHT22;15238;49.082;9.102;2023-12-20T10:09:45;6.50;99.90
27890;DHT22;15238;49.082;9.102;2023-12-20T10:11:46;6.50;99.90
27890;DHT22;15238;49.082;9.102;2023-12-20T10:13:48;6.60;99.90
27890;DHT22;15238;49.082;9.102;2023-12-20T10:15:49;6.60;99.90
27890;DHT22;15238;49.082;9.102;2023-12-20T10:17:50;6.70;99.90
27890;DHT22;15238;49.082;9.102;2023-12-20T10:19:50;6.60;99.90
27890;DHT22;15238;49.082;9.102;2023-12-20T10:21:51;6.70;99.90
27890;DHT22;15238;49.082;9.102;2023-12-20T10:23:54;6.70;99.90
27890;DHT22;15238;49.082;9.102;2023-12-20T10:25:58;6.70;99.90
27890;DHT22;15238;49.082;9.102;2023-12-20T10:28:16;6.70;99.90
27890;DHT22;15238;49.082;9.102;2023-12-20T10:30:19;6.70;99.90
27890;DHT22;15238;49.082;9.102;2023-12-20T10:32:24;6.70;99.90
27890;DHT22;15238;49.082;9.102;2023-12-20T10:34:25;6.80;99.90
27890;DHT22;15238;49.082;9.102;2023-12-20T10:36:27;6.80;99.90
27890;DHT22;15238;49.082;9.102;2023-12-20T10:38:28;6.90;99.90
27890;DHT22;15238;49.082;9.102;2023-12-20T10:40:31;6.80;99.90
27890;DHT22;15238;49.082;9.102;2023-12-20T10:42:35;6.90;99.90
27890;DHT22;15238;49.082;9.102;2023-12-20T10:44:36;7.00;99.90
27890;DHT22;15238;49.082;9.102;2023-12-20T10:46:37;7.00;99.90
27890;DHT22;15238;49.082;9.102;2023-12-20T10:48:39;7.00;99.90
27890;DHT22;15238;49.082;9.102;2023-12-20T10:50:41;6.80;99.90
27890;DHT22;15238;49.082;9.102;2023-12-20T10:52:42;6.60;99.90
27890;DHT22;15238;49.082;9.102;2023-12-20T10:54:45;6.50;99.90
27890;DHT22;15238;49.082;9.102;2023-12-20T10:56:45;6.50;99.90
27890;DHT22;15238;49.082;9.102;2023-12-20T10:58:47;6.40;99.90
27890;DHT22;15238;49.082;9.102;2023-12-20T11:00:52;6.40;99.90
27890;DHT22;15238;49.082;9.102;2023-12-20T11:03:00;6.30;99.90
27890;DHT22;15238;49.082;9.102;2023-12-20T11:07:36;6.40;99.90
27890;DHT22;15238;49.082;9.102;2023-12-20T11:09:42;6.30;99.90
27890;DHT22;15238;49.082;9.102;2023-12-20T11:14:18;6.30;99.90
27890;DHT22;15238;49.082;9.102;2023-12-20T11:16:19;6.30;99.90
27890;DHT22;15238;49.082;9.102;2023-12-20T11:18:19;6.30;99.90
27890;DHT22;15238;49.082;9.102;2023-12-20T11:20:23;6.40;99.90
27890;DHT22;15238;49.082;9.102;2023-12-20T11:22:33;6.40;99.90
27890;DHT22;15238;49.082;9.102;2023-12-20T11:24:34;6.50;99.90
27890;DHT22;15238;49.082;9.102;2023-12-20T11:26:38;6.40;99.90
27890;DHT22;15238;49.082;9.102;2023-12-20T11:28:46;6.40;99.90
27890;DHT22;15238;49.082;9.102;2023-12-20T11:30:54;6.50;99.90
27890;DHT22;15238;49.082;9.102;2023-12-20T11:32:55;6.50;99.90
27890;DHT22;15238;49.082;9.102;2023-12-20T11:37:09;6.70;99.90
27890;DHT22;15238;49.082;9.102;2023-12-20T11:39:09;6.90;99.90
27890;DHT22;15238;49.082;9.102;2023-12-20T11:41:11;7.00;99.90
27890;DHT22;15238;49.082;9.102;2023-12-20T11:43:11;7.10;99.90
27890;DHT22;15238;49.082;9.102;2023-12-20T11:45:17;7.10;99.90
27890;DHT22;15238;49.082;9.102;2023-12-20T11:47:20;7.10;99.90
27890;DHT22;15238;49.082;9.102;2023-12-20T11:49:23;7.00;99.90
27890;DHT22;15238;49.082;9.102;2023-12-20T11:51:24;7.10;99.90
27890;DHT22;15238;49.082;9.102;2023-12-20T11:53:24;7.00;99.90
27890;DHT22;15238;49.082;9.102;2023-12-20T11:55:25;6.90;99.90
27890;DHT22;15238;49.082;9.102;2023-12-20T11:57:26;6.90;99.90
27890;DHT22;15238;49.082;9.102;2023-12-20T11:59:26;7.00;99.90
27890;DHT22;15238;49.082;9.102;2023-12-20T12:01:27;7.00;99.90
27890;DHT22;15238;49.082;9.102;2023-12-20T12:03:27;7.00;99.90
27890;DHT22;15238;49.082;9.102;2023-12-20T12:05:28;7.00;99.90
27890;DHT22;15238;49.082;9.102;2023-12-20T12:07:28;7.00;99.90
27890;DHT22;15238;49.082;9.102;2023-12-20T12:09:29;7.00;99.90
27890;DHT22;15238;49.082;9.102;2023-12-20T12:11:29;7.00;99.90
27890;DHT22;15238;49.082;9.102;2023-12-20T12:13:30;7.00;99.90
27890;DHT22;15238;49.082;9.102;2023-12-20T12:15:30;7.10;99.90
27890;DHT22;15238;49.082;9.102;2023-12-20T12:17:31;7.20;99.90
27890;DHT22;15238;49.082;9.102;2023-12-20T12:19:31;7.20;99.90
27890;DHT22;15238;49.082;9.102;2023-12-20T12:21:36;7.20;99.90
27890;DHT22;15238;49.082;9.102;2023-12-20T12:23:36;7.10;99.90
27890;DHT22;15238;49.082;9.102;2023-12-20T12:25:37;6.90;99.90
27890;DHT22;15238;49.082;9.102;2023-12-20T12:27:40;6.80;99.90
27890;DHT22;15238;49.082;9.102;2023-12-20T12:29:40;6.90;99.90
27890;DHT22;15238;49.082;9.102;2023-12-20T12:31:41;6.90;99.90
27890;DHT22;15238;49.082;9.102;2023-12-20T12:33:42;6.90;99.90
27890;DHT22;15238;49.082;9.102;2023-12-20T12:35:43;6.90;99.90
27890;DHT22;15238;49.082;9.102;2023-12-20T12:37:45;6.90;99.90
27890;DHT22;15238;49.082;9.102;2023-12-20T12:39:46;6.80;99.90
27890;DHT22;15238;49.082;9.102;2023-12-20T12:41:47;6.70;99.90
27890;DHT22;15238;49.082;9.102;2023-12-20T12:43:47;6.80;99.90
27890;DHT22;15238;49.082;9.102;2023-12-20T12:45:48;6.90;99.90
27890;DHT22;15238;49.082;9.102;2023-12-20T12:47:49;6.90;99.90
27890;DHT22;15238;49.082;9.102;2023-12-20T12:49:51;6.90;99.90
27890;DHT22;15238;49.082;9.102;2023-12-20T12:51:52;6.90;99.90
27890;DHT22;15238;49.082;9.102;2023-12-20T12:53:53;6.90;99.90
27890;DHT22;15238;49.082;9.102;2023-12-20T12:55:53;6.90;99.90
27890;DHT22;15238;49.082;9.102;2023-12-20T12:57:55;6.90;99.90
27890;DHT22;15238;49.082;9.102;2023-12-20T12:59:55;7.00;99.90
27890;DHT22;15238;49.082;9.102;2023-12-20T13:01:56;7.00;99.90
27890;DHT22;15238;49.082;9.102;2023-12-20T13:03:57;7.00;99.90